Time;durP1;ratioP1;P1;durP2;ratioP2;P2;SDS_P1;SDS_P2;PMS_P1;PMS_P2;Temp;Humidity;BMP_temperature;BMP_pressure;BME280_temperature;BME280_humidity;BME280_pressure;Samples;Min_cycle;Max_cycle;Signal;HPM_P1;HPM_P2
2023/03/19 00:01:56;;;;;;;6.97;5.88;;;10.60;92.60;;;;;;5058676;28;20047;-79
2023/03/19 00:04:23;;;;;;;7.60;5.10;;;10.70;92.60;;;;;;5075174;28;20044;-79
2023/03/19 00:06:49;;;;;;;6.50;4.82;;;10.60;92.70;;;;;;5075304;28;20127;-80
2023/03/19 00:09:15;;;;;;;5.95;5.45;;;10.60;92.40;;;;;;5092035;28;20523;-80
2023/03/19 00:11:41;;;;;;;6.38;5.45;;;10.60;92.40;;;;;;5075064;28;20043;-78
2023/03/19 00:14:07;;;;;;;6.45;4.75;;;10.60;92.80;;;;;;5074965;28;20392;-78
2023/03/19 00:16:33;;;;;;;5.85;5.25;;;10.60;92.60;;;;;;5074788;28;20059;-78
2023/03/19 00:18:59;;;;;;;10.32;4.35;;;10.60;92.70;;;;;;5058691;28;20071;-79
2023/03/19 00:21:26;;;;;;;6.38;4.10;;;10.60;93.30;;;;;;5075263;28;20050;-78
2023/03/19 00:23:52;;;;;;;7.15;4.03;;;10.60;93.20;;;;;;5091667;28;20036;-78
2023/03/19 00:26:18;;;;;;;6.00;4.63;;;10.60;93.40;;;;;;5091735;28;20119;-78
2023/03/19 00:28:44;;;;;;;8.77;4.38;;;10.50;93.00;;;;;;5075181;28;20055;-78
2023/03/19 00:31:15;;;;;;;5.72;4.35;;;10.60;93.40;;;;;;5058221;28;20052;-79
2023/03/19 00:33:42;;;;;;;6.20;4.22;;;10.50;93.60;;;;;;5058354;28;20051;-79
2023/03/19 00:36:09;;;;;;;9.07;4.80;;;10.50;93.90;;;;;;5074769;28;20035;-78
2023/03/19 00:38:35;;;;;;;5.38;4.07;;;10.50;93.90;;;;;;5091892;28;20392;-78
2023/03/19 00:41:01;;;;;;;4.80;3.40;;;10.50;93.80;;;;;;5091562;28;20105;-78
2023/03/19 00:43:27;;;;;;;6.88;3.67;;;10.50;93.70;;;;;;5091616;28;20480;-78
2023/03/19 00:45:53;;;;;;;5.45;3.40;;;10.50;93.40;;;;;;5074785;28;20096;-78
2023/03/19 00:48:20;;;;;;;6.72;3.65;;;10.50;93.90;;;;;;5074768;28;20051;-78
2023/03/19 00:50:46;;;;;;;4.43;3.05;;;10.50;93.80;;;;;;5091726;28;20102;-79
2023/03/19 00:53:12;;;;;;;3.95;3.53;;;10.50;93.80;;;;;;5074837;28;20048;-78
2023/03/19 00:55:38;;;;;;;5.85;3.40;;;10.40;94.20;;;;;;5091820;28;20472;-78
2023/03/19 00:58:05;;;;;;;5.28;3.40;;;10.40;94.00;;;;;;5091354;28;20050;-78
2023/03/19 01:00:35;;;;;;;4.05;3.28;;;10.40;93.90;;;;;;5094070;28;20086;-78
2023/03/19 01:03:01;;;;;;;4.30;3.60;;;10.40;94.20;;;;;;5079441;28;20474;-78
2023/03/19 01:05:27;;;;;;;4.72;3.50;;;10.40;94.10;;;;;;5078763;28;20348;-80
2023/03/19 01:07:52;;;;;;;6.85;4.28;;;10.40;94.10;;;;;;5097004;28;20036;-78
2023/03/19 01:10:21;;;;;;;6.03;4.13;;;10.30;93.90;;;;;;5096808;28;20043;-78
2023/03/19 01:12:47;;;;;;;6.32;4.00;;;10.40;94.00;;;;;;5096349;28;20097;-78
2023/03/19 01:15:13;;;;;;;7.38;4.10;;;10.30;93.90;;;;;;5096888;28;20071;-78
2023/03/19 01:17:38;;;;;;;4.70;4.00;;;10.30;93.80;;;;;;5097537;28;20064;-78
2023/03/19 01:20:11;;;;;;;4.60;3.70;;;10.30;93.70;;;;;;5063525;28;20044;-78
2023/03/19 01:22:38;;;;;;;4.38;3.47;;;10.30;93.50;;;;;;5078383;28;20046;-79
2023/03/19 01:25:05;;;;;;;6.82;4.30;;;10.30;93.70;;;;;;5095133;28;20609;-79
2023/03/19 01:27:31;;;;;;;4.95;3.83;;;10.30;93.70;;;;;;5095400;28;20039;-79
2023/03/19 01:29:56;;;;;;;5.72;3.63;;;10.30;93.60;;;;;;5061613;28;20495;-78
2023/03/19 01:32:22;;;;;;;5.50;4.00;;;10.40;94.00;;;;;;5095301;28;20032;-78
2023/03/19 01:34:48;;;;;;;6.10;4.03;;;10.40;93.80;;;;;;5061426;28;20044;-78
2023/03/19 01:37:14;;;;;;;6.47;4.93;;;10.40;93.90;;;;;;5095034;28;20040;-78
2023/03/19 01:39:40;;;;;;;8.38;5.43;;;10.40;94.10;;;;;;5044840;28;20040;-79
2023/03/19 01:42:06;;;;;;;8.18;5.57;;;10.40;93.90;;;;;;5095115;28;20032;-78
2023/03/19 01:44:34;;;;;;;7.35;5.57;;;10.40;94.30;;;;;;5061080;28;20418;-78
2023/03/19 01:47:04;;;;;;;6.93;5.20;;;10.40;94.70;;;;;;5094972;28;20047;-79
2023/03/19 01:49:31;;;;;;;8.93;6.07;;;10.40;94.80;;;;;;5094743;28;20563;-78
2023/03/19 01:51:59;;;;;;;8.43;6.05;;;10.30;94.80;;;;;;5078114;28;20105;-78
2023/03/19 01:54:28;;;;;;;9.57;6.63;;;10.40;94.40;;;;;;5094979;28;20117;-79
2023/03/19 01:57:15;;;;;;;8.93;6.53;;;10.40;94.90;;;;;;5094790;28;20063;-78
2023/03/19 01:59:44;;;;;;;8.45;7.20;;;10.40;94.50;;;;;;5094486;28;20044;-79
2023/03/19 02:02:18;;;;;;;9.13;7.20;;;10.40;94.60;;;;;;5094523;28;20069;-78
2023/03/19 02:04:46;;;;;;;10.07;7.72;;;10.40;94.80;;;;;;5094537;28;20048;-78
2023/03/19 02:07:12;;;;;;;9.25;7.15;;;10.40;94.70;;;;;;5077566;28;20043;-78
2023/03/19 02:09:40;;;;;;;10.32;7.45;;;10.40;94.90;;;;;;5094371;28;20044;-79
2023/03/19 02:12:08;;;;;;;9.63;7.40;;;10.40;94.80;;;;;;5059953;28;20065;-78
2023/03/19 02:14:33;;;;;;;10.15;7.25;;;10.40;95.00;;;;;;5094129;28;20044;-79
2023/03/19 02:17:00;;;;;;;11.85;7.38;;;10.40;94.30;;;;;;5077144;28;20079;-77
2023/03/19 02:19:47;;;;;;;11.52;8.20;;;10.40;94.20;;;;;;5094383;28;20051;-78
2023/03/19 02:22:16;;;;;;;12.05;9.40;;;10.40;94.60;;;;;;5094293;28;20055;-79
2023/03/19 02:24:58;;;;;;;11.95;8.98;;;10.40;94.50;;;;;;5077035;28;20075;-78
2023/03/19 02:27:24;;;;;;;13.90;8.93;;;10.40;94.90;;;;;;5077608;28;20032;-78
2023/03/19 02:29:50;;;;;;;14.10;10.55;;;10.40;94.40;;;;;;5093913;28;20043;-79
2023/03/19 02:32:16;;;;;;;13.70;10.50;;;10.40;95.00;;;;;;5060774;28;20040;-78
2023/03/19 02:34:43;;;;;;;13.98;10.38;;;10.30;94.80;;;;;;5060542;28;20507;-78
2023/03/19 02:37:18;;;;;;;14.60;10.48;;;10.30;94.80;;;;;;5076922;28;20056;-78
2023/03/19 02:39:52;;;;;;;17.75;12.32;;;10.30;95.20;;;;;;5093892;28;20119;-78
2023/03/19 02:42:20;;;;;;;19.23;13.55;;;10.30;95.70;;;;;;5093842;28;20106;-78
2023/03/19 02:44:46;;;;;;;18.70;12.90;;;10.30;96.00;;;;;;5093522;28;20036;-79
2023/03/19 02:47:12;;;;;;;19.00;13.07;;;10.20;96.00;;;;;;5076824;28;20044;-79
2023/03/19 02:49:38;;;;;;;23.90;16.25;;;10.20;95.60;;;;;;5076764;28;20048;-78
2023/03/19 02:52:04;;;;;;;20.73;15.30;;;10.20;95.20;;;;;;5076923;28;20035;-78
2023/03/19 02:54:29;;;;;;;26.08;16.55;;;10.20;95.30;;;;;;5093453;28;20065;-79
2023/03/19 02:56:55;;;;;;;22.00;15.55;;;10.20;96.10;;;;;;5093345;28;20127;-78
2023/03/19 02:59:21;;;;;;;22.25;16.00;;;10.20;95.70;;;;;;5076567;28;20036;-79
2023/03/19 03:01:47;;;;;;;23.35;16.50;;;10.20;96.10;;;;;;5093444;28;20101;-79
2023/03/19 03:04:15;;;;;;;26.52;17.20;;;10.20;95.60;;;;;;5076623;28;20047;-79
2023/03/19 03:06:42;;;;;;;23.83;15.88;;;10.20;96.60;;;;;;5060468;28;20042;-78
2023/03/19 03:09:09;;;;;;;22.25;16.13;;;10.20;96.20;;;;;;5076308;28;20051;-78
2023/03/19 03:11:35;;;;;;;25.58;17.38;;;10.20;96.40;;;;;;5076333;28;20093;-78
2023/03/19 03:14:00;;;;;;;21.35;16.70;;;10.20;96.00;;;;;;5059524;28;20420;-79
2023/03/19 03:16:26;;;;;;;22.98;17.40;;;10.10;95.70;;;;;;5076135;28;20055;-78
2023/03/19 03:18:52;;;;;;;24.52;17.90;;;10.20;96.60;;;;;;5076253;28;20044;-79
2023/03/19 03:21:20;;;;;;;24.58;17.65;;;10.10;96.50;;;;;;5059883;28;20067;-78
2023/03/19 03:23:47;;;;;;;23.73;17.45;;;10.10;96.40;;;;;;5092517;28;20040;-78
2023/03/19 03:26:13;;;;;;;24.58;17.17;;;10.10;96.50;;;;;;5076182;28;20044;-78
2023/03/19 03:28:39;;;;;;;27.17;18.42;;;10.10;96.40;;;;;;5075927;28;20043;-78
2023/03/19 03:31:05;;;;;;;23.17;17.10;;;10.10;96.60;;;;;;5093033;28;20046;-78
2023/03/19 03:33:31;;;;;;;23.33;17.58;;;10.10;96.20;;;;;;5092906;28;20044;-78
2023/03/19 03:35:57;;;;;;;24.55;17.08;;;10.10;96.60;;;;;;5092739;28;20043;-79
2023/03/19 03:38:23;;;;;;;24.27;16.58;;;10.00;96.60;;;;;;5059092;28;20044;-78
2023/03/19 03:40:51;;;;;;;27.13;17.40;;;10.10;96.70;;;;;;5075986;28;20036;-78
2023/03/19 03:43:18;;;;;;;24.58;17.33;;;10.10;96.70;;;;;;5058945;28;20050;-78
2023/03/19 03:45:44;;;;;;;22.30;17.15;;;10.00;97.10;;;;;;5075759;28;20093;-78
2023/03/19 03:48:10;;;;;;;22.90;16.70;;;10.00;97.00;;;;;;5092626;28;20040;-78
2023/03/19 03:50:36;;;;;;;23.10;16.55;;;10.00;96.90;;;;;;5075625;28;20404;-79
2023/03/19 03:53:02;;;;;;;21.48;15.90;;;10.00;97.00;;;;;;5092256;28;20043;-78
2023/03/19 03:55:27;;;;;;;21.50;15.85;;;10.00;97.10;;;;;;5058874;28;20655;-79
2023/03/19 03:57:53;;;;;;;21.35;15.98;;;10.00;97.30;;;;;;5058791;28;20047;-79
2023/03/19 04:00:19;;;;;;;18.65;14.75;;;10.00;97.20;;;;;;5092405;28;20134;-79
2023/03/19 04:02:45;;;;;;;24.38;15.93;;;10.00;97.00;;;;;;5075219;28;20048;-78
2023/03/19 04:05:11;;;;;;;21.10;14.82;;;10.00;97.10;;;;;;5075450;28;20044;-79
2023/03/19 04:07:37;;;;;;;25.50;16.40;;;9.90;97.10;;;;;;5075229;28;20040;-78
2023/03/19 04:10:04;;;;;;;24.08;17.05;;;10.00;97.20;;;;;;5092035;28;20085;-79
2023/03/19 04:12:30;;;;;;;20.83;15.40;;;10.00;97.20;;;;;;5092077;28;20051;-79
2023/03/19 04:14:56;;;;;;;20.98;15.50;;;9.90;97.20;;;;;;5075348;28;20040;-78
2023/03/19 04:17:22;;;;;;;20.48;16.15;;;9.90;97.10;;;;;;5074979;28;20404;-79
2023/03/19 04:19:48;;;;;;;23.23;16.20;;;9.90;97.10;;;;;;5091996;28;20044;-79
2023/03/19 04:22:14;;;;;;;23.27;16.55;;;9.80;97.00;;;;;;5075297;28;20039;-79
2023/03/19 04:24:40;;;;;;;23.40;17.08;;;9.90;96.90;;;;;;5058341;28;20040;-79
2023/03/19 04:27:07;;;;;;;23.90;17.30;;;9.80;96.90;;;;;;5092103;28;20391;-78
2023/03/19 04:29:32;;;;;;;23.70;16.58;;;9.80;96.90;;;;;;5058401;28;20082;-78
2023/03/19 04:31:58;;;;;;;22.50;17.02;;;9.80;96.70;;;;;;5058282;28;20130;-79
2023/03/19 04:34:24;;;;;;;26.60;18.90;;;9.70;96.70;;;;;;5057709;28;20051;-79
2023/03/19 04:36:50;;;;;;;28.40;18.67;;;9.70;96.70;;;;;;5091768;28;20079;-79
2023/03/19 04:39:17;;;;;;;27.75;18.98;;;9.60;96.60;;;;;;5091640;28;20519;-79
2023/03/19 04:41:44;;;;;;;25.88;19.33;;;9.60;96.50;;;;;;5074849;28;20127;-79
2023/03/19 04:44:09;;;;;;;28.13;20.45;;;9.60;96.40;;;;;;5091452;28;20102;-79
2023/03/19 04:46:35;;;;;;;29.70;20.67;;;9.50;96.50;;;;;;5091785;28;20492;-79
2023/03/19 04:49:01;;;;;;;30.23;20.33;;;9.50;96.50;;;;;;5074552;28;20043;-78
2023/03/19 04:51:27;;;;;;;33.15;21.02;;;9.40;96.50;;;;;;5074661;28;20047;-79
2023/03/19 04:53:53;;;;;;;27.65;20.20;;;9.30;96.50;;;;;;5091464;28;20044;-78
2023/03/19 04:56:19;;;;;;;33.20;21.80;;;9.30;96.50;;;;;;5074747;28;20504;-79
2023/03/19 04:58:45;;;;;;;27.15;18.90;;;9.30;96.40;;;;;;5074407;28;20051;-79
2023/03/19 05:01:11;;;;;;;30.73;20.77;;;9.20;96.40;;;;;;5091401;28;20043;-78
2023/03/19 05:03:37;;;;;;;31.50;22.00;;;9.20;96.40;;;;;;5074414;28;20040;-78
2023/03/19 05:06:03;;;;;;;28.63;21.73;;;9.20;96.40;;;;;;5074810;28;20032;-79
2023/03/19 05:08:28;;;;;;;31.17;20.98;;;9.10;96.30;;;;;;5074450;28;20503;-78
2023/03/19 05:10:54;;;;;;;30.85;21.42;;;9.10;96.30;;;;;;5074506;28;20097;-79
2023/03/19 05:13:20;;;;;;;29.80;20.38;;;9.10;96.20;;;;;;5074578;28;20040;-79
2023/03/19 05:15:46;;;;;;;28.77;20.77;;;9.10;96.20;;;;;;5057598;28;20413;-77
2023/03/19 05:18:12;;;;;;;29.35;21.02;;;9.00;96.10;;;;;;5074436;28;20054;-78
2023/03/19 05:20:39;;;;;;;30.25;20.88;;;9.00;96.10;;;;;;5074312;28;20044;-78
2023/03/19 05:23:06;;;;;;;30.05;20.42;;;9.00;96.20;;;;;;5074304;28;20558;-78
2023/03/19 05:25:34;;;;;;;30.35;20.23;;;8.90;96.10;;;;;;5074530;28;20151;-78
2023/03/19 05:28:00;;;;;;;28.67;19.73;;;8.80;96.10;;;;;;5074544;28;20066;-78
2023/03/19 05:30:26;;;;;;;30.15;19.88;;;8.80;96.10;;;;;;5057637;28;20069;-78
2023/03/19 05:32:54;;;;;;;31.25;20.05;;;8.80;96.10;;;;;;5074386;28;20040;-79
2023/03/19 05:35:20;;;;;;;30.60;19.33;;;8.70;96.00;;;;;;5090777;28;20040;-78
2023/03/19 05:37:45;;;;;;;33.63;21.90;;;8.70;96.00;;;;;;5090763;28;20042;-78
2023/03/19 05:40:12;;;;;;;35.15;22.27;;;8.60;96.00;;;;;;5073795;28;20126;-79
2023/03/19 05:42:37;;;;;;;32.53;21.42;;;8.60;96.00;;;;;;5057249;28;20058;-79
2023/03/19 05:45:04;;;;;;;31.40;21.02;;;8.60;96.00;;;;;;5073605;28;20563;-78
2023/03/19 05:47:30;;;;;;;31.48;21.48;;;8.50;96.00;;;;;;5061626;28;20498;-79
2023/03/19 05:49:56;;;;;;;33.75;20.80;;;8.50;96.00;;;;;;5061543;28;20434;-78
2023/03/19 05:52:22;;;;;;;31.17;20.02;;;8.40;96.00;;;;;;5077777;28;20039;-78
2023/03/19 05:54:49;;;;;;;32.50;21.15;;;8.30;96.00;;;;;;5094514;28;20074;-79
2023/03/19 05:57:15;;;;;;;33.90;21.92;;;8.30;96.00;;;;;;5094959;28;20442;-80
2023/03/19 05:59:41;;;;;;;35.63;22.30;;;8.30;96.00;;;;;;5077695;28;20127;-79
2023/03/19 06:02:07;;;;;;;34.25;22.92;;;8.30;96.00;;;;;;5077897;28;20036;-78
2023/03/19 06:04:33;;;;;;;36.70;22.92;;;8.20;96.00;;;;;;5077437;28;20494;-79
2023/03/19 06:06:59;;;;;;;31.42;20.63;;;8.20;95.90;;;;;;5077588;28;20040;-79
2023/03/19 06:09:24;;;;;;;42.80;24.88;;;8.10;95.90;;;;;;5094384;28;20036;-79
2023/03/19 06:11:50;;;;;;;40.05;25.15;;;8.10;95.90;;;;;;5077471;28;20055;-79
2023/03/19 06:14:16;;;;;;;39.72;25.95;;;8.00;95.90;;;;;;5078062;28;20043;-79
2023/03/19 06:16:41;;;;;;;43.10;26.20;;;8.00;96.00;;;;;;5077851;28;20124;-78
2023/03/19 06:19:07;;;;;;;44.50;27.40;;;8.00;96.00;;;;;;5061642;28;20040;-78
2023/03/19 06:21:33;;;;;;;43.13;26.02;;;8.00;96.10;;;;;;5044963;28;20039;-78
2023/03/19 06:23:58;;;;;;;46.53;27.75;;;8.00;96.30;;;;;;5077027;28;20044;-79
2023/03/19 06:26:25;;;;;;;44.05;28.15;;;8.00;96.30;;;;;;5077096;28;20051;-79
2023/03/19 06:28:51;;;;;;;46.90;28.85;;;8.00;96.30;;;;;;5094305;28;20478;-80
2023/03/19 06:31:16;;;;;;;47.42;30.15;;;8.00;96.30;;;;;;5077100;28;20036;-79
2023/03/19 06:33:42;;;;;;;54.45;34.63;;;8.00;96.30;;;;;;5072856;28;20054;-79
2023/03/19 06:36:08;;;;;;;49.38;29.90;;;8.00;96.40;;;;;;5069901;28;20051;-80
2023/03/19 06:38:34;;;;;;;41.92;25.02;;;8.00;96.50;;;;;;5071814;28;20609;-78
2023/03/19 06:41:00;;;;;;;49.95;28.48;;;8.00;96.40;;;;;;5074091;28;20058;-79
2023/03/19 06:43:26;;;;;;;46.22;28.05;;;8.10;96.50;;;;;;5082618;28;20044;-79
2023/03/19 06:45:52;;;;;;;51.05;28.48;;;8.10;96.50;;;;;;5098030;28;20052;-78
2023/03/19 06:48:18;;;;;;;44.35;26.25;;;8.10;96.60;;;;;;5080345;28;20048;-77
2023/03/19 06:50:46;;;;;;;51.17;30.45;;;8.10;96.60;;;;;;5079718;28;20048;-79
2023/03/19 06:53:13;;;;;;;59.10;35.65;;;8.20;96.70;;;;;;5065450;28;20079;-79
2023/03/19 06:55:39;;;;;;;51.47;30.70;;;8.20;96.90;;;;;;5097407;28;20052;-78
2023/03/19 06:58:05;;;;;;;45.80;27.52;;;8.30;96.70;;;;;;5054019;28;20055;-79
2023/03/19 07:00:32;;;;;;;52.03;30.27;;;8.30;96.70;;;;;;5052653;28;20102;-79
2023/03/19 07:02:58;;;;;;;55.80;30.67;;;8.40;97.00;;;;;;5070769;28;20555;-79
2023/03/19 07:05:24;;;;;;;50.50;29.80;;;8.40;97.10;;;;;;5059904;28;20032;-79
2023/03/19 07:07:50;;;;;;;47.08;29.92;;;8.50;96.70;;;;;;5093378;28;20036;-79
2023/03/19 07:10:20;;;;;;;51.58;30.20;;;8.50;96.80;;;;;;5076770;28;20028;-80
2023/03/19 07:12:46;;;;;;;47.67;27.70;;;8.60;96.80;;;;;;5076579;28;20388;-80
2023/03/19 07:15:12;;;;;;;45.20;26.50;;;8.60;96.70;;;;;;5076464;28;20047;-80
2023/03/19 07:17:38;;;;;;;50.40;28.25;;;8.70;97.10;;;;;;5092968;28;20083;-80
2023/03/19 07:20:04;;;;;;;45.40;26.65;;;8.80;97.00;;;;;;5093418;28;20078;-79
2023/03/19 07:22:30;;;;;;;47.28;25.48;;;8.80;96.90;;;;;;5076471;28;20096;-79
2023/03/19 07:24:55;;;;;;;50.92;27.25;;;8.80;96.80;;;;;;5076095;28;20189;-80
2023/03/19 07:27:21;;;;;;;58.50;29.73;;;8.90;96.50;;;;;;5076132;28;20044;-80
2023/03/19 07:29:47;;;;;;;55.00;26.25;;;8.90;96.60;;;;;;5059653;28;20040;-80
2023/03/19 07:32:13;;;;;;;67.30;29.63;;;8.90;96.10;;;;;;5075815;28;20161;-81
2023/03/19 07:34:39;;;;;;;61.90;30.42;;;8.90;96.20;;;;;;5076068;28;20131;-79
2023/03/19 07:37:05;;;;;;;66.30;32.35;;;8.90;96.10;;;;;;5050641;28;20512;-80
2023/03/19 07:39:31;;;;;;;65.40;31.88;;;8.80;96.10;;;;;;5064299;28;20045;-80
2023/03/19 07:41:57;;;;;;;57.45;30.70;;;8.80;96.10;;;;;;5064435;28;20040;-80
2023/03/19 07:44:22;;;;;;;62.25;31.42;;;8.80;96.00;;;;;;5064711;28;20076;-80
2023/03/19 07:46:48;;;;;;;67.45;34.70;;;8.80;96.20;;;;;;5066732;28;20439;-80
2023/03/19 07:49:14;;;;;;;63.60;33.17;;;8.80;95.80;;;;;;5066881;28;20477;-80
2023/03/19 07:51:40;;;;;;;68.18;37.42;;;8.80;96.00;;;;;;5048438;28;20039;-80
2023/03/19 07:54:06;;;;;;;72.55;39.80;;;8.70;95.90;;;;;;5082622;28;20085;-79
2023/03/19 07:56:31;;;;;;;98.53;56.88;;;8.70;96.30;;;;;;5049627;28;20048;-81
2023/03/19 07:58:58;;;;;;;94.35;53.65;;;8.70;96.20;;;;;;5052500;28;20044;-79
2023/03/19 08:01:25;;;;;;;73.78;37.28;;;8.70;96.50;;;;;;5051625;28;20040;-80
2023/03/19 08:03:51;;;;;;;80.38;38.55;;;8.80;96.30;;;;;;5085843;28;20044;-80
2023/03/19 08:06:16;;;;;;;72.38;36.30;;;8.70;96.10;;;;;;5067212;28;20032;-80
2023/03/19 08:08:42;;;;;;;74.47;36.55;;;8.80;96.10;;;;;;5051960;28;20492;-80
2023/03/19 08:11:08;;;;;;;86.25;38.00;;;8.80;95.80;;;;;;5052164;28;20135;-80
2023/03/19 08:13:33;;;;;;;85.47;37.50;;;8.80;95.80;;;;;;5052612;28;20126;-80
2023/03/19 08:15:59;;;;;;;85.35;38.15;;;8.60;95.90;;;;;;5067186;28;20692;-80
2023/03/19 08:18:26;;;;;;;94.72;39.58;;;8.60;96.00;;;;;;5069576;28;20051;-80
2023/03/19 08:20:51;;;;;;;79.50;34.20;;;8.70;96.00;;;;;;5069009;28;20063;-80
2023/03/19 08:23:18;;;;;;;82.20;34.92;;;8.70;96.00;;;;;;5085499;28;20071;-80
2023/03/19 08:25:44;;;;;;;71.88;31.60;;;8.60;96.00;;;;;;5067796;28;20048;-80
2023/03/19 08:28:10;;;;;;;70.95;29.92;;;8.60;96.00;;;;;;5069036;28;20446;-80
2023/03/19 08:30:36;;;;;;;72.53;31.48;;;8.60;95.90;;;;;;5069087;28;20124;-80
2023/03/19 08:33:02;;;;;;;84.68;29.10;;;8.60;96.00;;;;;;5085230;28;20082;-78
2023/03/19 08:35:28;;;;;;;118.93;31.10;;;8.50;96.00;;;;;;5067026;28;20044;-79
2023/03/19 08:37:54;;;;;;;55.97;23.08;;;8.50;96.00;;;;;;5052259;28;20595;-80
2023/03/19 08:40:21;;;;;;;52.42;19.67;;;8.40;96.40;;;;;;5052480;28;20043;-80
2023/03/19 08:42:46;;;;;;;55.65;20.15;;;8.40;96.30;;;;;;5068693;28;20154;-79
2023/03/19 08:45:14;;;;;;;54.97;21.10;;;8.40;96.30;;;;;;5033727;28;20040;-81
2023/03/19 08:47:40;;;;;;;45.78;19.92;;;8.30;96.20;;;;;;5085430;28;20050;-82
2023/03/19 08:50:07;;;;;;;47.05;18.52;;;8.30;96.20;;;;;;5068241;28;20040;-80
2023/03/19 08:52:33;;;;;;;41.60;18.90;;;8.20;96.50;;;;;;5084968;28;20825;-80
2023/03/19 08:54:58;;;;;;;52.13;20.70;;;8.20;96.60;;;;;;5050611;28;20086;-79
2023/03/19 08:57:24;;;;;;;66.97;20.45;;;8.20;96.60;;;;;;5052049;28;20039;-80
2023/03/19 08:59:52;;;;;;;37.53;15.25;;;8.20;96.50;;;;;;5035335;28;20114;-80
2023/03/19 09:02:18;;;;;;;41.75;17.70;;;8.30;96.40;;;;;;5068035;28;20365;-80
2023/03/19 09:04:44;;;;;;;41.28;19.13;;;8.30;96.40;;;;;;5083453;28;20129;-81
2023/03/19 09:07:12;;;;;;;49.25;19.13;;;8.30;96.50;;;;;;5068851;28;20038;-80
2023/03/19 09:09:39;;;;;;;45.72;20.20;;;8.20;96.70;;;;;;5068502;28;20043;-80
2023/03/19 09:12:06;;;;;;;36.25;17.88;;;8.30;96.90;;;;;;5069172;28;20089;-80
2023/03/19 09:14:33;;;;;;;44.50;19.00;;;8.30;96.70;;;;;;5050663;28;20070;-79
2023/03/19 09:16:58;;;;;;;41.00;18.67;;;8.30;96.90;;;;;;5051342;28;20500;-80
2023/03/19 09:19:24;;;;;;;45.05;19.95;;;8.30;96.70;;;;;;5050571;28;20063;-80
2023/03/19 09:21:50;;;;;;;45.33;20.35;;;8.30;97.10;;;;;;5054629;28;20050;-79
2023/03/19 09:24:17;;;;;;;43.25;18.35;;;8.40;96.90;;;;;;5071500;28;20507;-80
2023/03/19 09:26:44;;;;;;;34.05;17.17;;;8.50;96.70;;;;;;5089422;28;20446;-79
2023/03/19 09:29:09;;;;;;;43.10;20.35;;;8.60;96.60;;;;;;5072621;28;20377;-80
2023/03/19 09:31:36;;;;;;;39.45;19.00;;;8.60;96.50;;;;;;5089171;28;20055;-81
2023/03/19 09:34:02;;;;;;;42.40;20.77;;;8.50;96.50;;;;;;5072379;28;20079;-81
2023/03/19 09:36:28;;;;;;;43.45;22.42;;;8.50;96.40;;;;;;5087711;28;20588;-81
2023/03/19 09:38:54;;;;;;;43.75;19.90;;;8.50;96.50;;;;;;5072101;28;20389;-80
2023/03/19 09:41:39;;;;;;;51.17;20.88;;;8.50;96.70;;;;;;5055358;28;20044;-79
2023/03/19 09:44:10;;;;;;;38.60;19.40;;;8.60;96.60;;;;;;5070701;28;20117;-80
2023/03/19 09:47:15;;;;;;;39.70;18.20;;;8.60;96.60;;;;;;5071445;28;20166;-80
2023/03/19 09:49:49;;;;;;;38.45;19.45;;;8.60;96.60;;;;;;5052304;28;20564;-80
2023/03/19 09:52:37;;;;;;;36.13;19.33;;;8.60;96.60;;;;;;5071915;28;20047;-79
2023/03/19 09:55:24;;;;;;;43.83;22.92;;;8.60;96.20;;;;;;5086954;28;20058;-80
2023/03/19 09:57:55;;;;;;;48.35;23.73;;;8.70;96.10;;;;;;5088053;28;20040;-80
2023/03/19 10:00:26;;;;;;;46.95;24.33;;;8.60;96.10;;;;;;5088390;28;20044;-80
2023/03/19 10:03:14;;;;;;;39.75;20.67;;;8.60;96.10;;;;;;5071408;28;20631;-80
2023/03/19 10:06:01;;;;;;;42.85;21.52;;;8.60;96.10;;;;;;5070010;28;20062;-80
2023/03/19 10:08:38;;;;;;;33.58;19.35;;;8.70;95.90;;;;;;5092405;28;20332;-80
2023/03/19 10:11:22;;;;;;;30.45;17.55;;;8.60;95.90;;;;;;5077507;28;20039;-80
2023/03/19 10:14:05;;;;;;;32.28;18.45;;;8.70;95.90;;;;;;5094256;28;20048;-80
2023/03/19 10:16:31;;;;;;;37.03;20.25;;;8.70;95.80;;;;;;5094018;28;20514;-79
2023/03/19 10:19:01;;;;;;;35.72;19.10;;;8.80;95.70;;;;;;5094245;28;20048;-79
2023/03/19 10:21:41;;;;;;;39.25;20.30;;;8.80;95.70;;;;;;5077331;28;20035;-79
2023/03/19 10:24:32;;;;;;;37.05;20.35;;;8.80;95.90;;;;;;5093941;28;20079;-80
2023/03/19 10:27:01;;;;;;;39.85;19.15;;;8.80;96.00;;;;;;5094285;28;20093;-79
2023/03/19 10:29:27;;;;;;;36.50;18.63;;;8.90;95.90;;;;;;5093979;28;20120;-79
2023/03/19 10:32:18;;;;;;;30.65;16.45;;;8.90;96.00;;;;;;5076425;28;20089;-80
2023/03/19 10:34:53;;;;;;;30.08;17.15;;;9.00;95.90;;;;;;5094408;28;20491;-79
2023/03/19 10:37:21;;;;;;;29.88;16.20;;;9.00;95.70;;;;;;5093891;28;20048;-79
2023/03/19 10:39:52;;;;;;;29.38;16.30;;;9.00;95.40;;;;;;5093694;28;20055;-80
2023/03/19 10:42:24;;;;;;;34.65;19.02;;;9.00;95.70;;;;;;5093751;28;20122;-80
2023/03/19 10:45:11;;;;;;;32.00;17.67;;;9.00;95.60;;;;;;5076847;28;20040;-78
2023/03/19 10:47:38;;;;;;;33.42;19.88;;;9.00;95.50;;;;;;5094068;28;20036;-80
2023/03/19 10:50:05;;;;;;;32.35;17.55;;;9.10;95.50;;;;;;5076905;28;20051;-80
2023/03/19 10:52:34;;;;;;;31.17;20.20;;;9.10;95.60;;;;;;5076759;28;20032;-79
2023/03/19 10:55:11;;;;;;;28.92;18.88;;;9.10;95.40;;;;;;5093459;28;20086;-80
2023/03/19 10:57:42;;;;;;;26.75;19.15;;;9.10;95.40;;;;;;5076673;28;20040;-80
2023/03/19 11:00:21;;;;;;;30.90;17.23;;;9.10;95.40;;;;;;5076621;28;20044;-80
2023/03/19 11:02:55;;;;;;;24.42;15.15;;;9.00;95.50;;;;;;5093420;28;20044;-80
2023/03/19 11:05:20;;;;;;;31.27;17.03;;;9.10;95.30;;;;;;5093296;28;20040;-80
2023/03/19 11:08:15;;;;;;;29.63;16.63;;;9.10;95.20;;;;;;5076412;28;20051;-79
2023/03/19 11:10:46;;;;;;;26.73;16.98;;;9.10;95.20;;;;;;5076596;28;20204;-80
2023/03/19 11:13:24;;;;;;;36.53;18.95;;;9.10;95.20;;;;;;5093343;28;20052;-80
2023/03/19 11:15:52;;;;;;;35.97;20.15;;;9.10;95.40;;;;;;5076361;28;20059;-80
2023/03/19 11:18:26;;;;;;;27.92;14.43;;;9.10;95.60;;;;;;5076830;28;20048;-80
2023/03/19 11:21:07;;;;;;;32.28;17.58;;;9.20;95.30;;;;;;5093434;28;20062;-80
2023/03/19 11:23:40;;;;;;;32.53;18.10;;;9.20;95.40;;;;;;5092872;28;20036;-80
2023/03/19 11:26:08;;;;;;;30.58;18.80;;;9.10;95.50;;;;;;5078310;28;20040;-80
2023/03/19 11:28:36;;;;;;;30.13;16.33;;;9.20;95.50;;;;;;5059620;28;20051;-80
2023/03/19 11:31:11;;;;;;;31.05;16.70;;;9.10;95.60;;;;;;5094379;28;20067;-80
2023/03/19 11:33:59;;;;;;;29.42;18.90;;;9.20;95.50;;;;;;5093378;28;20043;-80
2023/03/19 11:37:29;;;;;;;37.33;19.58;;;9.20;95.40;;;;;;5093331;28;20044;-80
2023/03/19 11:40:19;;;;;;;28.50;16.52;;;9.30;95.50;;;;;;5031753;28;20052;-80
2023/03/19 11:42:59;;;;;;;29.80;17.77;;;9.30;95.60;;;;;;5089804;28;20350;-80
2023/03/19 11:45:43;;;;;;;27.77;17.77;;;9.40;95.50;;;;;;5075959;28;20100;-79
2023/03/19 11:48:30;;;;;;;29.45;18.25;;;9.40;95.40;;;;;;5092425;28;20039;-80
2023/03/19 11:51:19;;;;;;;32.40;18.80;;;9.40;95.40;;;;;;5075447;28;20488;-80
2023/03/19 11:54:24;;;;;;;33.40;18.30;;;9.40;95.50;;;;;;5092333;28;20052;-79
2023/03/19 11:56:59;;;;;;;33.58;19.75;;;9.40;95.60;;;;;;5091711;28;20056;-80
2023/03/19 11:59:28;;;;;;;39.08;21.45;;;9.40;95.70;;;;;;5075475;28;20098;-80
2023/03/19 12:02:24;;;;;;;35.28;22.38;;;9.40;95.80;;;;;;5092164;28;20127;-79
2023/03/19 12:05:00;;;;;;;41.80;22.05;;;9.40;95.80;;;;;;5075122;28;20047;-80
2023/03/19 12:08:21;;;;;;;38.55;23.92;;;9.40;95.80;;;;;;5075485;28;20094;-79
2023/03/19 12:11:21;;;;;;;41.40;22.58;;;9.40;95.90;;;;;;5009909;28;20518;-79
2023/03/19 12:13:46;;;;;;;45.40;26.02;;;9.60;95.60;;;;;;5025236;28;20048;-80
2023/03/19 12:16:39;;;;;;;43.85;26.60;;;9.60;95.60;;;;;;5071530;28;20504;-80
2023/03/19 12:19:19;;;;;;;47.42;25.55;;;9.60;95.60;;;;;;5091788;28;20433;-80
2023/03/19 12:21:55;;;;;;;49.85;26.63;;;9.70;95.50;;;;;;5091892;28;20051;-79
2023/03/19 12:24:24;;;;;;;47.38;27.10;;;9.70;95.30;;;;;;5091696;28;20503;-80
2023/03/19 12:27:05;;;;;;;48.05;25.58;;;9.70;95.30;;;;;;5075116;28;20123;-80
2023/03/19 12:29:37;;;;;;;43.88;23.88;;;9.70;95.20;;;;;;5092095;28;20388;-80
2023/03/19 12:32:20;;;;;;;40.70;23.60;;;9.70;95.20;;;;;;5091705;28;20043;-80
2023/03/19 12:34:51;;;;;;;45.80;25.38;;;9.70;95.30;;;;;;5074721;28;20044;-80
2023/03/19 12:37:23;;;;;;;42.42;22.52;;;9.70;95.10;;;;;;5074776;28;20044;-80
2023/03/19 12:40:19;;;;;;;44.35;24.02;;;9.80;95.10;;;;;;5074955;28;20479;-80
2023/03/19 12:42:45;;;;;;;44.42;26.45;;;9.80;95.00;;;;;;5091525;28;20068;-81
2023/03/19 12:45:33;;;;;;;45.38;25.98;;;9.90;95.00;;;;;;5091493;28;20044;-79
2023/03/19 12:48:19;;;;;;;43.08;24.77;;;9.80;95.10;;;;;;5091448;28;20059;-79
2023/03/19 12:50:50;;;;;;;52.28;26.10;;;9.90;94.90;;;;;;5091579;28;20044;-80